createdAt,value
2022-11-18T00:00:32.491Z,8.76
2022-11-18T00:10:32.820Z,8.80
2022-11-18T00:20:32.877Z,8.89
2022-11-18T00:30:33.207Z,8.84
2022-11-18T00:40:33.236Z,8.76
2022-11-18T00:50:33.570Z,8.63
2022-11-18T01:00:33.673Z,8.66
2022-11-18T01:10:33.831Z,8.61
2022-11-18T01:20:33.866Z,8.70
2022-11-18T01:30:34.207Z,8.73
2022-11-18T01:40:34.268Z,8.74
2022-11-18T01:50:34.598Z,8.71
2022-11-18T02:00:34.619Z,8.68
2022-11-18T02:10:34.957Z,8.53
2022-11-18T02:20:34.999Z,8.63
2022-11-18T02:30:35.340Z,8.40
2022-11-18T02:40:35.366Z,8.48
2022-11-18T02:50:35.685Z,8.43
2022-11-18T03:00:35.709Z,8.41
2022-11-18T03:10:36.062Z,8.47
2022-11-18T03:20:36.089Z,8.55
2022-11-18T03:30:57.475Z,8.73
2022-11-18T03:40:36.511Z,8.87
2022-11-18T03:50:36.726Z,8.63
2022-11-18T04:00:36.944Z,8.55
2022-11-18T04:10:39.202Z,8.33
2022-11-18T04:20:37.428Z,8.33
2022-11-18T04:30:37.731Z,8.28
2022-11-18T04:40:37.766Z,8.16
2022-11-18T04:50:37.996Z,8.40
2022-11-18T05:00:38.227Z,8.25
2022-11-18T05:10:38.472Z,8.23
2022-11-18T05:20:41.583Z,8.41
2022-11-18T05:30:38.948Z,8.56
2022-11-18T05:40:38.972Z,8.38
2022-11-18T05:50:39.206Z,8.55
2022-11-18T06:00:39.544Z,8.38
2022-11-18T06:10:40.603Z,8.33
2022-11-18T06:20:39.852Z,8.56
2022-11-18T06:30:40.151Z,8.19
2022-11-18T06:40:40.201Z,8.08
2022-11-18T06:50:41.453Z,8.08
2022-11-18T07:00:40.627Z,8.16
2022-11-18T07:10:43.969Z,8.15
2022-11-18T07:20:40.791Z,8.11
2022-11-18T07:30:41.062Z,8.15
2022-11-18T07:40:41.289Z,8.28
2022-11-18T07:50:46.850Z,8.25
2022-11-18T08:00:42.703Z,8.18
2022-11-18T08:10:42.003Z,8.22
2022-11-18T08:20:42.039Z,8.56
2022-11-18T08:30:44.251Z,8.74
2022-11-18T08:40:42.485Z,8.50
2022-11-18T08:50:42.746Z,8.66
2022-11-18T09:00:42.973Z,8.89
2022-11-18T09:10:43.323Z,9.11
2022-11-18T09:20:43.352Z,9.13
2022-11-18T09:30:44.690Z,8.98
2022-11-18T09:40:43.713Z,8.98
2022-11-18T09:50:51.350Z,9.26
2022-11-18T10:00:45.027Z,9.42
2022-11-18T10:10:44.272Z,9.64
2022-11-18T10:20:44.487Z,10.05
2022-11-18T10:30:44.732Z,10.02
2022-11-18T10:40:44.961Z,10.08
2022-11-18T10:50:47.279Z,9.94
2022-11-18T11:00:46.339Z,9.64
2022-11-18T11:10:51.337Z,9.58
2022-11-18T11:20:46.739Z,9.51
2022-11-18T11:30:46.669Z,9.78
2022-11-18T11:40:46.193Z,9.96
2022-11-18T11:50:54.741Z,10.17
2022-11-18T12:00:47.574Z,10.08
2022-11-18T12:10:46.863Z,10.30
2022-11-18T12:20:46.883Z,10.48
2022-11-18T12:30:47.128Z,10.48
2022-11-18T12:40:52.271Z,10.55
2022-11-18T12:50:48.439Z,10.70
2022-11-18T13:00:49.873Z,10.64
2022-11-18T13:10:51.733Z,10.70
2022-11-18T13:20:51.614Z,10.47
2022-11-18T13:30:49.472Z,10.34
2022-11-18T13:40:48.693Z,10.33
2022-11-18T13:50:49.142Z,10.42
2022-11-18T14:00:49.190Z,10.53
2022-11-18T14:10:52.576Z,10.34
2022-11-18T14:20:49.424Z,10.05
2022-11-18T14:30:49.770Z,9.99
2022-11-18T14:40:49.791Z,10.12
2022-11-18T14:50:51.060Z,10.14
2022-11-18T15:00:50.321Z,9.99
2022-11-18T15:10:50.721Z,9.71
2022-11-18T15:20:50.757Z,9.56
2022-11-18T15:30:51.178Z,9.33
2022-11-18T15:40:51.204Z,8.95
2022-11-18T15:50:54.252Z,8.91
2022-11-18T16:00:51.693Z,8.53
2022-11-18T16:10:51.828Z,8.59
2022-11-18T16:20:51.856Z,8.43
2022-11-18T16:30:52.105Z,8.25
2022-11-18T16:40:52.320Z,8.07
2022-11-18T16:50:52.675Z,8.20
2022-11-18T17:01:17.669Z,8.12
2022-11-18T17:10:54.070Z,8.15
2022-11-18T17:20:53.102Z,8.01
2022-11-18T17:30:53.157Z,8.45
2022-11-18T17:40:57.937Z,8.28
2022-11-18T17:50:53.653Z,8.22
2022-11-18T18:00:53.801Z,8.29
2022-11-18T18:10:53.988Z,8.23
2022-11-18T18:20:54.023Z,8.30
2022-11-18T18:30:54.197Z,8.33
2022-11-18T18:40:54.398Z,8.04
2022-11-18T18:50:54.523Z,8.04
2022-11-18T19:00:58.293Z,7.72
2022-11-18T19:10:55.040Z,7.52
2022-11-18T19:20:58.642Z,7.80
2022-11-18T19:30:55.479Z,7.53
2022-11-18T19:40:55.745Z,7.52
2022-11-18T19:50:59.674Z,7.82
2022-11-18T20:00:55.986Z,7.79
2022-11-18T20:10:56.180Z,7.71
2022-11-18T20:20:56.127Z,7.63
2022-11-18T20:30:56.333Z,7.55
2022-11-18T20:40:56.534Z,7.39
2022-11-18T20:50:56.803Z,7.53
2022-11-18T21:01:01.463Z,7.23
2022-11-18T21:10:57.927Z,7.31
2022-11-18T21:20:57.261Z,7.34
2022-11-18T21:30:57.294Z,6.69
2022-11-18T21:40:57.635Z,6.49
2022-11-18T21:50:57.671Z,6.69
2022-11-18T22:00:59.068Z,6.79
2022-11-18T22:10:58.096Z,7.02
2022-11-18T22:20:58.380Z,6.97
2022-11-18T22:30:58.505Z,6.98
2022-11-18T22:40:58.602Z,6.79
2022-11-18T22:50:58.624Z,6.87
2022-11-18T23:00:59.000Z,6.84
2022-11-18T23:10:59.037Z,6.51
2022-11-18T23:20:59.277Z,6.44
2022-11-18T23:30:59.512Z,6.46
2022-11-18T23:40:59.952Z,6.49
2022-11-18T23:50:59.968Z,6.51
